createdAt,value
2023-01-22T00:01:43.907Z,1.70
2023-01-22T00:04:13.056Z,1.00
2023-01-22T00:06:41.599Z,0.90
2023-01-22T00:09:10.378Z,1.20
2023-01-22T00:11:38.962Z,0.90
2023-01-22T00:14:09.062Z,0.90
2023-01-22T00:16:37.769Z,1.20
2023-01-22T00:19:07.054Z,1.60
2023-01-22T00:21:36.170Z,1.90
2023-01-22T00:24:05.982Z,1.10
2023-01-22T00:26:34.872Z,1.10
2023-01-22T00:29:04.724Z,1.80
2023-01-22T00:31:33.743Z,1.50
2023-01-22T00:34:02.672Z,2.00
2023-01-22T00:36:33.307Z,1.90
2023-01-22T00:39:02.096Z,2.10
2023-01-22T00:41:30.786Z,2.00
2023-01-22T00:43:59.911Z,2.00
2023-01-22T00:46:28.998Z,1.70
2023-01-22T00:48:57.560Z,2.20
2023-01-22T00:51:26.688Z,1.60
2023-01-22T00:53:56.930Z,2.40
2023-01-22T00:56:25.564Z,1.10
2023-01-22T00:58:55.457Z,2.40
2023-01-22T01:01:25.519Z,1.90
2023-01-22T01:03:55.150Z,1.30
2023-01-22T01:06:24.407Z,2.80
2023-01-22T01:08:53.197Z,2.70
2023-01-22T01:11:26.517Z,4.00
2023-01-22T01:13:55.082Z,3.20
2023-01-22T01:16:30.936Z,2.40
2023-01-22T01:19:04.065Z,2.60
2023-01-22T01:21:33.719Z,1.20
2023-01-22T01:24:02.902Z,2.10
2023-01-22T01:26:31.930Z,1.80
2023-01-22T01:29:00.722Z,0.90
2023-01-22T01:31:29.550Z,1.10
2023-01-22T01:33:59.059Z,2.10
2023-01-22T01:36:47.292Z,1.70
2023-01-22T01:39:17.193Z,2.20
2023-01-22T01:41:45.857Z,2.30
2023-01-22T01:44:21.985Z,1.80
2023-01-22T01:47:06.207Z,1.00
2023-01-22T01:50:00.974Z,2.00
2023-01-22T01:52:29.839Z,1.70
2023-01-22T01:54:58.864Z,2.50
2023-01-22T01:57:31.432Z,1.90
2023-01-22T02:00:01.761Z,1.80
2023-01-22T02:02:30.246Z,1.80
2023-01-22T02:04:59.464Z,2.30
2023-01-22T02:07:29.461Z,2.20
2023-01-22T02:09:58.148Z,2.20
2023-01-22T02:12:26.781Z,1.60
2023-01-22T02:14:55.927Z,2.90
2023-01-22T02:17:24.512Z,2.40
2023-01-22T02:19:53.409Z,2.30
2023-01-22T02:22:25.768Z,2.60
2023-01-22T02:24:54.976Z,2.80
2023-01-22T02:27:24.378Z,1.30
2023-01-22T02:29:53.078Z,3.60
2023-01-22T02:32:22.367Z,2.90
2023-01-22T02:34:50.953Z,2.80
2023-01-22T02:37:19.758Z,1.70
2023-01-22T02:39:49.656Z,2.50
2023-01-22T02:42:19.684Z,2.50
2023-01-22T02:44:50.411Z,2.80
2023-01-22T02:47:19.815Z,3.30
2023-01-22T02:49:49.317Z,3.10
2023-01-22T02:52:18.313Z,2.70
2023-01-22T02:54:47.635Z,2.40
2023-01-22T02:57:16.403Z,3.30
2023-01-22T02:59:46.546Z,3.30
2023-01-22T03:02:15.659Z,3.10
2023-01-22T03:04:46.967Z,3.60
2023-01-22T03:07:15.450Z,3.40
2023-01-22T03:09:45.990Z,3.60
2023-01-22T03:12:14.565Z,2.40
2023-01-22T03:15:01.905Z,3.10
2023-01-22T03:17:49.422Z,2.70
2023-01-22T03:20:37.355Z,2.80
2023-01-22T03:23:06.044Z,4.50
2023-01-22T03:25:35.138Z,1.60
2023-01-22T03:28:18.906Z,3.50
2023-01-22T03:30:53.766Z,3.20
2023-01-22T03:33:22.603Z,3.90
2023-01-22T03:35:51.504Z,3.10
2023-01-22T03:38:22.123Z,3.50
2023-01-22T03:40:50.814Z,3.80
2023-01-22T03:43:20.635Z,3.70
2023-01-22T03:45:49.746Z,2.70
2023-01-22T03:48:21.275Z,3.30
2023-01-22T03:50:50.695Z,2.90
2023-01-22T03:53:19.369Z,3.80
2023-01-22T03:56:01.019Z,4.00
2023-01-22T03:58:30.767Z,3.00
2023-01-22T04:01:09.451Z,3.60
2023-01-22T04:03:38.384Z,3.80
2023-01-22T04:06:09.464Z,3.50
2023-01-22T04:08:40.877Z,3.40
2023-01-22T04:11:10.486Z,2.70
2023-01-22T04:13:42.058Z,3.80
2023-01-22T04:16:13.046Z,3.90
2023-01-22T04:19:15.100Z,4.20
2023-01-22T04:21:50.084Z,3.70
2023-01-22T04:24:20.307Z,2.70
2023-01-22T04:26:49.710Z,3.30
2023-01-22T04:29:21.375Z,3.30
2023-01-22T04:31:50.675Z,2.50
2023-01-22T04:34:55.607Z,3.40
2023-01-22T04:37:36.889Z,3.60
2023-01-22T04:40:06.904Z,3.60
2023-01-22T04:42:38.459Z,4.20
2023-01-22T04:45:08.349Z,3.50
2023-01-22T04:47:44.712Z,3.20
2023-01-22T04:50:20.880Z,3.30
2023-01-22T04:52:54.842Z,3.90
2023-01-22T04:55:24.578Z,3.60
2023-01-22T04:58:01.370Z,3.60
2023-01-22T05:00:31.843Z,3.90
2023-01-22T05:03:04.776Z,2.90
2023-01-22T05:05:34.534Z,3.90
2023-01-22T05:08:04.140Z,1.80
2023-01-22T05:10:34.876Z,3.40
2023-01-22T05:13:07.207Z,2.20
2023-01-22T05:15:36.278Z,4.00
2023-01-22T05:18:09.845Z,4.10
2023-01-22T05:20:40.986Z,4.40
2023-01-22T05:23:10.904Z,3.70
2023-01-22T05:25:39.445Z,3.40
2023-01-22T05:28:08.378Z,3.60
2023-01-22T05:30:55.238Z,4.00
2023-01-22T05:33:41.325Z,4.20
2023-01-22T05:36:14.887Z,3.80
2023-01-22T05:38:44.193Z,2.80
2023-01-22T05:41:13.079Z,2.10
2023-01-22T05:43:42.487Z,2.80
2023-01-22T05:46:17.241Z,2.60
2023-01-22T05:49:06.998Z,4.50
2023-01-22T05:51:36.011Z,6.00
2023-01-22T05:54:04.948Z,3.60
2023-01-22T05:56:36.128Z,3.90
2023-01-22T05:59:05.121Z,3.50
2023-01-22T06:01:33.808Z,3.10
2023-01-22T06:04:02.503Z,2.20
2023-01-22T06:06:31.194Z,3.80
2023-01-22T06:09:00.108Z,4.00
2023-01-22T06:11:33.021Z,4.00
2023-01-22T06:14:01.800Z,4.20
2023-01-22T06:16:30.433Z,4.20
2023-01-22T06:19:28.929Z,1.90
2023-01-22T06:21:58.016Z,3.40
2023-01-22T06:24:39.106Z,4.20
2023-01-22T06:27:08.803Z,4.10
2023-01-22T06:29:48.656Z,4.90
2023-01-22T06:32:17.850Z,4.20
2023-01-22T06:34:46.742Z,4.70
2023-01-22T06:37:15.326Z,5.20
2023-01-22T06:39:44.218Z,4.50
2023-01-22T06:42:28.679Z,4.20
2023-01-22T06:44:58.079Z,3.20
2023-01-22T06:47:29.239Z,3.60
2023-01-22T06:49:58.015Z,5.40
2023-01-22T06:52:26.669Z,5.10
2023-01-22T06:54:55.391Z,4.90
2023-01-22T06:57:26.428Z,5.10
2023-01-22T06:59:55.114Z,4.50
2023-01-22T07:02:23.944Z,4.40
2023-01-22T07:04:52.703Z,5.40
2023-01-22T07:07:21.399Z,4.00
2023-01-22T07:09:50.173Z,4.60
2023-01-22T07:12:18.753Z,4.40
2023-01-22T07:14:47.441Z,3.90
2023-01-22T07:17:15.924Z,5.90
2023-01-22T07:19:44.618Z,6.30
2023-01-22T07:22:13.197Z,5.90
2023-01-22T07:24:41.782Z,7.00
2023-01-22T07:27:10.578Z,7.20
2023-01-22T07:29:39.259Z,6.30
2023-01-22T07:32:08.047Z,5.10
2023-01-22T07:34:37.760Z,6.40
2023-01-22T07:37:06.240Z,8.40
2023-01-22T07:39:35.956Z,6.20
2023-01-22T07:42:04.635Z,6.30
2023-01-22T07:44:33.322Z,6.30
2023-01-22T07:47:02.122Z,7.50
2023-01-22T07:49:31.007Z,7.20
2023-01-22T07:51:59.594Z,8.20
2023-01-22T07:54:28.284Z,8.00
2023-01-22T07:56:56.965Z,6.80
2023-01-22T07:59:25.653Z,7.40
2023-01-22T08:01:57.484Z,5.40
2023-01-22T08:04:26.094Z,6.10
2023-01-22T08:06:54.998Z,3.80
2023-01-22T08:09:25.962Z,5.30
2023-01-22T08:11:54.617Z,7.10
2023-01-22T08:14:23.298Z,8.10
2023-01-22T08:16:51.893Z,7.40
2023-01-22T08:19:20.673Z,7.00
2023-01-22T08:21:49.155Z,5.60
2023-01-22T08:24:18.254Z,6.70
2023-01-22T08:26:46.879Z,6.50
2023-01-22T08:29:15.626Z,5.80
2023-01-22T08:31:44.323Z,5.60
2023-01-22T08:34:13.303Z,6.90
2023-01-22T08:36:42.302Z,6.40
2023-01-22T08:39:11.672Z,5.50
2023-01-22T08:41:41.791Z,5.50
2023-01-22T08:44:14.023Z,6.00
2023-01-22T08:46:42.471Z,7.10
2023-01-22T08:49:11.264Z,10.40
2023-01-22T08:51:39.845Z,6.20
2023-01-22T08:54:08.536Z,6.40
2023-01-22T08:56:37.020Z,6.10
2023-01-22T08:59:06.901Z,7.10
2023-01-22T09:01:35.720Z,9.30
2023-01-22T09:04:08.533Z,8.00
2023-01-22T09:06:39.326Z,4.10
2023-01-22T09:09:08.421Z,7.70
2023-01-22T09:11:37.023Z,7.40
2023-01-22T09:14:08.532Z,7.10
2023-01-22T09:16:37.840Z,6.90
2023-01-22T09:19:08.621Z,7.00
2023-01-22T09:21:37.924Z,6.70
2023-01-22T09:24:07.694Z,7.40
2023-01-22T09:26:39.353Z,8.10
2023-01-22T09:29:07.868Z,7.30
2023-01-22T09:31:37.863Z,21.20
2023-01-22T09:34:06.630Z,9.70
2023-01-22T09:36:35.775Z,19.40
2023-01-22T09:39:04.480Z,7.90
2023-01-22T09:41:38.795Z,8.80
2023-01-22T09:44:21.795Z,7.80
2023-01-22T09:47:08.204Z,7.20
2023-01-22T09:49:52.757Z,7.80
2023-01-22T09:52:24.939Z,7.20
2023-01-22T09:54:54.227Z,5.30
2023-01-22T09:57:31.759Z,10.30
2023-01-22T10:00:01.332Z,9.10
2023-01-22T10:02:48.782Z,9.10
2023-01-22T10:05:23.483Z,8.90
2023-01-22T10:08:01.022Z,9.40
2023-01-22T10:10:31.060Z,8.90
2023-01-22T10:13:23.449Z,8.70
2023-01-22T10:15:56.480Z,10.10
2023-01-22T10:18:46.727Z,5.80
2023-01-22T10:21:22.370Z,6.70
2023-01-22T10:23:51.672Z,7.00
2023-01-22T10:26:45.039Z,7.20
2023-01-22T10:29:23.661Z,8.10
2023-01-22T10:31:56.943Z,6.00
2023-01-22T10:34:36.454Z,7.90
2023-01-22T10:37:18.610Z,6.80
2023-01-22T10:39:50.976Z,7.30
2023-01-22T10:42:23.416Z,7.40
2023-01-22T10:45:12.404Z,7.00
2023-01-22T10:47:41.101Z,5.70
2023-01-22T10:50:17.389Z,6.90
2023-01-22T10:52:57.419Z,6.30
2023-01-22T10:55:33.122Z,7.00
2023-01-22T10:58:16.675Z,8.30
2023-01-22T11:00:57.013Z,6.20
2023-01-22T11:03:38.704Z,6.00
2023-01-22T11:06:24.844Z,7.00
2023-01-22T11:09:13.705Z,6.10
2023-01-22T11:11:51.197Z,6.60
2023-01-22T11:14:35.495Z,6.90
2023-01-22T11:17:22.571Z,4.90
2023-01-22T11:20:19.077Z,4.90
2023-01-22T11:23:10.324Z,5.70
2023-01-22T11:26:05.743Z,7.30
2023-01-22T11:29:34.943Z,7.30
2023-01-22T11:32:42.957Z,8.60
2023-01-22T11:35:22.968Z,8.40
2023-01-22T11:38:31.072Z,5.60
2023-01-22T11:41:28.385Z,14.40
2023-01-22T11:44:28.191Z,10.90
2023-01-22T11:47:24.731Z,7.50
2023-01-22T11:50:25.163Z,10.10
2023-01-22T11:53:20.072Z,10.10
2023-01-22T11:56:49.397Z,8.70
2023-01-22T11:59:56.262Z,4.50
2023-01-22T12:02:40.261Z,8.80
2023-01-22T12:05:20.141Z,8.30
2023-01-22T12:07:57.753Z,9.40
2023-01-22T12:10:55.206Z,6.40
2023-01-22T12:13:51.853Z,10.40
2023-01-22T12:16:35.999Z,10.00
2023-01-22T12:19:16.875Z,8.60
2023-01-22T12:22:07.478Z,9.70
2023-01-22T12:25:10.257Z,7.80
2023-01-22T12:27:53.896Z,13.60
2023-01-22T12:30:43.812Z,9.60
2023-01-22T12:33:17.449Z,9.90
2023-01-22T12:35:50.574Z,9.90
2023-01-22T12:38:27.764Z,7.60
2023-01-22T12:41:00.032Z,6.90
2023-01-22T12:44:03.540Z,7.00
2023-01-22T12:47:08.472Z,9.40
2023-01-22T12:49:52.313Z,7.40
2023-01-22T12:52:42.693Z,7.60
2023-01-22T12:55:30.775Z,9.70
2023-01-22T12:57:59.889Z,5.30
2023-01-22T13:00:36.558Z,9.20
2023-01-22T13:03:31.735Z,8.90
2023-01-22T13:06:17.312Z,13.10
2023-01-22T13:08:46.819Z,10.10
2023-01-22T13:11:47.865Z,10.30
2023-01-22T13:14:29.015Z,12.50
2023-01-22T13:17:04.406Z,8.70
2023-01-22T13:19:42.535Z,6.30
2023-01-22T13:22:18.412Z,12.40
2023-01-22T13:24:57.148Z,7.00
2023-01-22T13:27:33.668Z,8.80
2023-01-22T13:30:27.126Z,6.40
2023-01-22T13:33:06.152Z,10.00
2023-01-22T13:35:45.304Z,13.90
2023-01-22T13:38:35.368Z,9.20
2023-01-22T13:41:10.246Z,11.40
2023-01-22T13:43:40.684Z,6.90
2023-01-22T13:46:14.370Z,8.40
2023-01-22T13:48:43.741Z,10.50
2023-01-22T13:51:21.898Z,11.50
2023-01-22T13:53:54.832Z,11.80
2023-01-22T13:56:28.020Z,9.90
2023-01-22T13:59:35.239Z,9.70
2023-01-22T14:02:23.919Z,11.90
2023-01-22T14:04:52.553Z,10.60
2023-01-22T14:07:26.738Z,12.40
2023-01-22T14:09:57.088Z,10.80
2023-01-22T14:12:30.718Z,14.30
2023-01-22T14:14:59.278Z,7.30
2023-01-22T14:17:34.427Z,11.20
2023-01-22T14:20:04.551Z,12.20
2023-01-22T14:22:33.230Z,11.00
2023-01-22T14:25:02.438Z,9.80
2023-01-22T14:27:49.748Z,5.20
2023-01-22T14:30:21.984Z,8.50
2023-01-22T14:32:50.808Z,10.40
2023-01-22T14:35:26.634Z,9.90
2023-01-22T14:37:55.926Z,9.00
2023-01-22T14:40:27.168Z,10.30
2023-01-22T14:42:55.695Z,11.00
2023-01-22T14:45:24.321Z,12.60
2023-01-22T14:47:54.444Z,12.50
2023-01-22T14:50:23.910Z,10.70
2023-01-22T14:52:53.417Z,7.90
2023-01-22T14:55:22.411Z,11.90
2023-01-22T14:57:51.411Z,8.30
2023-01-22T15:00:21.150Z,6.20
2023-01-22T15:02:50.250Z,8.40
2023-01-22T15:05:18.798Z,22.60
2023-01-22T15:07:47.888Z,17.10
2023-01-22T15:10:17.303Z,16.30
2023-01-22T15:12:48.722Z,14.60
2023-01-22T15:15:23.307Z,9.80
2023-01-22T15:17:54.615Z,19.10
2023-01-22T15:20:25.681Z,14.70
2023-01-22T15:22:55.062Z,10.30
2023-01-22T15:25:23.770Z,12.20
2023-01-22T15:27:52.435Z,10.80
2023-01-22T15:30:21.493Z,17.70
2023-01-22T15:32:50.331Z,15.10
2023-01-22T15:35:19.113Z,16.40
2023-01-22T15:37:48.644Z,12.90
2023-01-22T15:40:17.824Z,14.80
2023-01-22T15:42:46.606Z,14.40
2023-01-22T15:45:15.493Z,10.10
2023-01-22T15:47:43.976Z,15.00
2023-01-22T15:50:16.250Z,12.80
2023-01-22T15:52:44.828Z,11.10
2023-01-22T15:55:13.720Z,13.40
2023-01-22T15:57:42.513Z,10.80
2023-01-22T16:00:12.614Z,9.70
2023-01-22T16:02:41.598Z,13.00
2023-01-22T16:05:10.338Z,10.00
2023-01-22T16:07:38.896Z,13.60
2023-01-22T16:10:07.790Z,5.90
2023-01-22T16:12:36.374Z,12.50
2023-01-22T16:15:07.734Z,13.70
2023-01-22T16:17:36.306Z,14.60
2023-01-22T16:20:05.911Z,13.10
2023-01-22T16:22:34.393Z,10.70
2023-01-22T16:25:03.083Z,7.40
2023-01-22T16:27:31.877Z,14.00
2023-01-22T16:30:01.071Z,12.60
2023-01-22T16:32:29.861Z,10.20
2023-01-22T16:34:58.547Z,8.40
2023-01-22T16:37:27.238Z,11.60
2023-01-22T16:39:55.967Z,10.00
2023-01-22T16:42:24.839Z,8.10
2023-01-22T16:44:53.701Z,10.00
2023-01-22T16:47:23.211Z,19.10
2023-01-22T16:49:51.895Z,14.00
2023-01-22T16:52:22.949Z,10.10
2023-01-22T16:54:51.852Z,10.50
2023-01-22T16:57:20.841Z,9.60
2023-01-22T16:59:49.619Z,9.90
2023-01-22T17:02:19.576Z,11.90
2023-01-22T17:04:48.423Z,7.30
2023-01-22T17:07:32.401Z,8.00
2023-01-22T17:10:02.714Z,11.90
2023-01-22T17:12:31.383Z,12.40
2023-01-22T17:15:00.171Z,9.40
2023-01-22T17:17:28.859Z,11.20
2023-01-22T17:19:57.641Z,8.40
2023-01-22T17:22:26.944Z,10.60
2023-01-22T17:24:55.834Z,10.10
2023-01-22T17:27:26.168Z,10.30
2023-01-22T17:29:55.048Z,10.10
2023-01-22T17:32:23.637Z,9.00
2023-01-22T17:34:52.627Z,11.40
2023-01-22T17:37:21.519Z,9.80
2023-01-22T17:39:50.869Z,9.00
2023-01-22T17:42:21.309Z,7.50
2023-01-22T17:44:50.049Z,9.20
2023-01-22T17:47:18.634Z,10.00
2023-01-22T17:49:49.007Z,6.20
2023-01-22T17:52:19.580Z,7.60
2023-01-22T17:54:48.371Z,7.40
2023-01-22T17:57:16.980Z,9.20
2023-01-22T17:59:45.843Z,7.60
2023-01-22T18:02:14.434Z,9.60
2023-01-22T18:04:43.120Z,5.00
2023-01-22T18:07:13.037Z,7.60
2023-01-22T18:09:41.724Z,9.40
2023-01-22T18:12:10.509Z,9.40
2023-01-22T18:14:40.690Z,9.40
2023-01-22T18:17:09.315Z,10.80
2023-01-22T18:19:38.107Z,10.60
2023-01-22T18:22:06.893Z,9.20
2023-01-22T18:24:36.830Z,12.00
2023-01-22T18:27:06.929Z,13.90
2023-01-22T18:29:35.521Z,13.10
2023-01-22T18:32:05.000Z,12.80
2023-01-22T18:34:34.218Z,10.30
2023-01-22T18:37:02.802Z,7.40
2023-01-22T18:39:32.132Z,9.30
2023-01-22T18:42:01.657Z,10.50
2023-01-22T18:44:31.018Z,9.00
2023-01-22T18:47:01.953Z,8.40
2023-01-22T18:49:30.684Z,6.10
2023-01-22T18:52:01.277Z,7.10
2023-01-22T18:54:29.964Z,8.20
2023-01-22T18:56:58.854Z,9.90
2023-01-22T18:59:27.444Z,29.80
2023-01-22T19:01:57.691Z,38.80
2023-01-22T19:04:28.195Z,15.80
2023-01-22T19:06:57.406Z,14.60
2023-01-22T19:09:27.216Z,13.40
2023-01-22T19:11:55.958Z,10.90
2023-01-22T19:14:24.894Z,7.50
2023-01-22T19:16:54.514Z,18.50
2023-01-22T19:19:23.367Z,13.30
2023-01-22T19:21:55.403Z,12.60
2023-01-22T19:24:28.318Z,10.40
2023-01-22T19:26:58.235Z,18.50
2023-01-22T19:29:27.532Z,13.80
2023-01-22T19:31:57.608Z,16.30
2023-01-22T19:34:28.926Z,18.00
2023-01-22T19:37:03.343Z,13.20
2023-01-22T19:39:32.602Z,14.10
2023-01-22T19:42:05.281Z,15.20
2023-01-22T19:44:35.679Z,9.80
2023-01-22T19:47:04.639Z,14.60
2023-01-22T19:49:33.435Z,15.10
2023-01-22T19:52:02.328Z,13.80
2023-01-22T19:54:31.555Z,12.00
2023-01-22T19:57:00.523Z,12.30
2023-01-22T19:59:29.202Z,14.30
2023-01-22T20:01:58.088Z,10.30
2023-01-22T20:04:30.918Z,6.90
2023-01-22T20:07:07.711Z,9.80
2023-01-22T20:09:37.586Z,12.40
2023-01-22T20:12:08.901Z,20.40
2023-01-22T20:14:44.002Z,16.10
2023-01-22T20:17:14.174Z,22.90
2023-01-22T20:19:42.979Z,19.90
2023-01-22T20:22:11.832Z,11.60
2023-01-22T20:24:41.880Z,15.00
2023-01-22T20:27:11.280Z,11.50
2023-01-22T20:29:40.941Z,14.40
2023-01-22T20:32:09.992Z,6.20
2023-01-22T20:34:38.774Z,6.70
2023-01-22T20:37:07.354Z,13.70
2023-01-22T20:39:36.144Z,14.90
2023-01-22T20:42:04.937Z,14.30
2023-01-22T20:44:35.258Z,12.50
2023-01-22T20:47:04.362Z,12.80
2023-01-22T20:49:33.656Z,17.40
2023-01-22T20:52:02.346Z,19.30
2023-01-22T20:54:33.147Z,18.20
2023-01-22T20:57:01.868Z,17.00
2023-01-22T20:59:30.665Z,14.20
2023-01-22T21:02:00.004Z,10.60
2023-01-22T21:04:28.849Z,9.80
2023-01-22T21:06:57.435Z,12.40
2023-01-22T21:09:28.276Z,11.30
2023-01-22T21:11:57.571Z,10.80
2023-01-22T21:14:26.274Z,7.90
2023-01-22T21:16:54.750Z,9.40
2023-01-22T21:19:26.172Z,11.90
2023-01-22T21:21:56.109Z,11.80
2023-01-22T21:24:25.101Z,7.50
2023-01-22T21:26:54.199Z,9.60
2023-01-22T21:29:24.145Z,11.80
2023-01-22T21:31:54.333Z,13.70
2023-01-22T21:34:25.899Z,14.30
2023-01-22T21:36:55.405Z,9.80
2023-01-22T21:39:28.434Z,9.80
2023-01-22T21:42:16.306Z,7.80
2023-01-22T21:45:03.955Z,8.00
2023-01-22T21:47:32.727Z,10.60
2023-01-22T21:50:01.335Z,10.70
2023-01-22T21:52:30.024Z,12.20
2023-01-22T21:54:59.529Z,11.80
2023-01-22T21:57:28.543Z,13.20
2023-01-22T21:59:57.099Z,12.40
2023-01-22T22:02:25.940Z,13.50
2023-01-22T22:04:54.887Z,10.60
2023-01-22T22:07:23.678Z,12.70
2023-01-22T22:09:52.564Z,12.40
2023-01-22T22:12:21.359Z,11.90
2023-01-22T22:14:49.940Z,11.00
2023-01-22T22:17:18.936Z,8.70
2023-01-22T22:19:47.623Z,12.20
2023-01-22T22:22:17.021Z,11.00
2023-01-22T22:24:45.606Z,12.60
2023-01-22T22:27:14.300Z,36.70
2023-01-22T22:29:42.916Z,13.80
2023-01-22T22:32:11.465Z,16.80
2023-01-22T22:34:40.056Z,18.60
2023-01-22T22:37:08.740Z,15.30
2023-01-22T22:39:39.165Z,12.20
2023-01-22T22:42:07.956Z,8.60
2023-01-22T22:44:37.890Z,20.70
2023-01-22T22:47:06.452Z,15.40
2023-01-22T22:49:35.240Z,12.30
2023-01-22T22:52:04.233Z,10.70
2023-01-22T22:54:32.719Z,14.90
2023-01-22T22:57:01.404Z,14.10
2023-01-22T22:59:30.095Z,12.70
2023-01-22T23:01:58.777Z,9.00
2023-01-22T23:04:27.496Z,13.20
2023-01-22T23:06:56.149Z,15.00
2023-01-22T23:09:24.943Z,13.70
2023-01-22T23:11:56.289Z,14.60
2023-01-22T23:14:25.589Z,13.90
2023-01-22T23:16:54.109Z,13.30
2023-01-22T23:19:26.622Z,11.00
2023-01-22T23:21:58.799Z,13.00
2023-01-22T23:24:28.016Z,11.30
2023-01-22T23:26:57.318Z,15.30
2023-01-22T23:29:27.115Z,12.60
2023-01-22T23:31:57.659Z,12.70
2023-01-22T23:34:28.813Z,8.50
2023-01-22T23:36:57.929Z,12.90
2023-01-22T23:39:27.119Z,7.20
2023-01-22T23:41:56.325Z,12.40
2023-01-22T23:44:26.266Z,12.60
2023-01-22T23:46:55.039Z,12.90
2023-01-22T23:49:24.313Z,12.90
2023-01-22T23:51:54.020Z,11.50
2023-01-22T23:54:23.166Z,12.80
2023-01-22T23:56:52.020Z,12.80
2023-01-22T23:59:23.831Z,13.60
